This is the latest recevied weather packets stored in our database for station/object SM6VFJ-1. If no packets are shown the sender has not sent any weather packets the latest 10 day(s).
| Time | Temp. | Humidity | Pressure | Rain* | Wind** | Luminosity | Snow |
|---|---|---|---|---|---|---|---|
| 1777887060 | 13.33° C | 57% | 1004.7 hPa | 0 mm | - | 694 W/m² | - |
| 1777881640 | 11.67° C | 90% | 1004.6 hPa | 0 mm | - | 715 W/m² | - |
| 1777876228 | 10° C | 94% | 1004.5 hPa | 0 mm | - | 158 W/m² | - |
| 1777863650 | 8.89° C | 94% | 1005.6 hPa | 0 mm | - | 0 W/m² | - |
| 1777862748 | 8.89° C | 94% | 1005.7 hPa | 0 mm | - | 0 W/m² | - |
| 1777860041 | 8.33° C | 94% | 1006.2 hPa | 0 mm | - | 0 W/m² | - |
| 1777858249 | 7.78° C | 93% | 1006.5 hPa | 0 mm | - | 0 W/m² | - |
| 1777853738 | 7.78° C | 93% | 1006.7 hPa | 0 mm | - | 0 W/m² | - |
| 1777851928 | 7.78° C | 93% | 1006.8 hPa | 0 mm | - | 0 W/m² | - |
| 1777848320 | 7.22° C | 93% | 1007.7 hPa | 0 mm | - | 0 W/m² | - |
| 1777842910 | 7.78° C | 91% | 1008.3 hPa | 0 mm | - | 0 W/m² | - |
| 1777838403 | 8.89° C | 90% | 1008.8 hPa | 0 mm | - | 0 W/m² | - |
| 1777835756 | 9.44° C | 88% | 1009.1 hPa | 0 mm | - | 0 W/m² | - |
| 1777833963 | 10° C | 88% | 1008.9 hPa | 0 mm | - | 5 W/m² | - |
| 1777832150 | 10.56° C | 87% | 1008.8 hPa | 0 mm | - | 25 W/m² | - |
| 1777829459 | 11.11° C | 88% | 1008.9 hPa | 0 mm | - | 18 W/m² | - |
| 1777828548 | 11.11° C | 87% | 1008.8 hPa | 0 mm | - | 21 W/m² | - |
| 1777824947 | 11.11° C | 89% | 1009.1 hPa | 0 mm | - | 28 W/m² | - |
| 1777824059 | 11.11° C | 89% | 1009.2 hPa | 0 mm | - | 28 W/m² | - |
| 1777822245 | 11.11° C | 88% | 1009.4 hPa | 0 mm | - | 105 W/m² | - |
| 1777819543 | 12.22° C | 85% | 1009.5 hPa | 0 mm | - | 135 W/m² | - |
| 1777817743 | 12.22° C | 84% | 1009.7 hPa | 0 mm | - | 77 W/m² | - |
| 1777808735 | 12.22° C | 84% | 1009.8 hPa | 0 mm | - | 62 W/m² | - |
| 1777793422 | 12.22° C | 75% | 1008.9 hPa | 0 mm | - | 151 W/m² | - |
| 1777792522 | 11.67° C | 75% | 1008.9 hPa | 0 mm | - | 130 W/m² | - |
* Rain latest hour (hover to see other rain measurements)
** Current wind speed in m/s (hover to see current wind gust speed)